createdAt,value
2023-03-06T00:00:57.023Z,5.45
2023-03-06T00:03:29.634Z,5.46
2023-03-06T00:05:58.135Z,5.46
2023-03-06T00:08:26.211Z,5.46
2023-03-06T00:10:53.527Z,5.48
2023-03-06T00:13:23.138Z,5.49
2023-03-06T00:15:50.460Z,5.46
2023-03-06T00:18:20.271Z,5.48
2023-03-06T00:20:47.417Z,5.46
2023-03-06T00:23:14.477Z,5.45
2023-03-06T00:25:46.054Z,5.45
2023-03-06T00:28:15.129Z,5.45
2023-03-06T00:30:43.932Z,5.45
2023-03-06T00:33:12.135Z,5.46
2023-03-06T00:35:40.699Z,5.45
2023-03-06T00:38:10.141Z,5.45
2023-03-06T00:40:39.434Z,5.48
2023-03-06T00:43:06.564Z,5.47
2023-03-06T00:45:34.807Z,5.46
2023-03-06T00:48:02.014Z,5.46
2023-03-06T00:50:29.260Z,5.43
2023-03-06T00:52:56.466Z,5.45
2023-03-06T00:55:25.037Z,5.45
2023-03-06T00:57:55.005Z,5.45
2023-03-06T01:00:22.317Z,5.46
2023-03-06T01:02:49.996Z,5.40
2023-03-06T01:05:17.273Z,5.42
2023-03-06T01:07:44.373Z,5.41
2023-03-06T01:10:14.847Z,5.45
2023-03-06T01:12:42.073Z,5.41
2023-03-06T01:15:10.704Z,5.41
2023-03-06T01:17:37.741Z,5.46
2023-03-06T01:20:05.398Z,5.43
2023-03-06T01:22:33.457Z,5.41
2023-03-06T01:25:00.971Z,5.45
2023-03-06T01:27:30.975Z,5.43
2023-03-06T01:29:58.249Z,5.42
2023-03-06T01:32:25.561Z,5.42
2023-03-06T01:34:54.647Z,5.42
2023-03-06T01:37:21.565Z,5.41
2023-03-06T01:39:48.788Z,5.42
2023-03-06T01:42:18.930Z,5.42
2023-03-06T01:45:04.936Z,5.42
2023-03-06T01:47:32.138Z,5.46
2023-03-06T01:50:01.640Z,5.42
2023-03-06T01:52:35.285Z,5.45
2023-03-06T01:55:16.206Z,5.42
2023-03-06T01:57:46.889Z,5.42
2023-03-06T02:00:19.670Z,5.45
2023-03-06T02:03:06.854Z,5.42
2023-03-06T02:05:41.905Z,5.41
2023-03-06T02:08:12.879Z,5.42
2023-03-06T02:11:02.805Z,5.43
2023-03-06T02:13:30.474Z,5.45
2023-03-06T02:15:57.659Z,5.46
2023-03-06T02:18:27.695Z,5.41
2023-03-06T02:20:58.722Z,5.41
2023-03-06T02:24:21.948Z,5.43
2023-03-06T02:26:50.194Z,5.45
2023-03-06T02:29:27.060Z,5.47
2023-03-06T02:31:59.066Z,5.45
2023-03-06T02:34:26.589Z,5.43
2023-03-06T02:37:02.189Z,5.47
2023-03-06T02:39:33.348Z,5.45
2023-03-06T02:42:00.714Z,5.43
2023-03-06T02:44:31.155Z,5.43
2023-03-06T02:46:58.790Z,5.43
2023-03-06T02:49:26.603Z,5.45
2023-03-06T02:51:53.910Z,5.46
2023-03-06T02:54:23.714Z,5.45
2023-03-06T02:56:54.124Z,5.46
2023-03-06T02:59:24.920Z,5.43
2023-03-06T03:01:53.085Z,5.43
2023-03-06T03:04:20.854Z,5.46
2023-03-06T03:06:48.108Z,5.43
2023-03-06T03:09:15.392Z,5.46
2023-03-06T03:11:42.968Z,5.45
2023-03-06T03:14:10.096Z,5.43
2023-03-06T03:16:39.613Z,5.41
2023-03-06T03:19:08.002Z,5.43
2023-03-06T03:21:39.238Z,5.45
2023-03-06T03:24:06.947Z,5.43
2023-03-06T03:26:34.171Z,5.41
2023-03-06T03:29:13.274Z,5.38
2023-03-06T03:31:40.770Z,5.38
2023-03-06T03:34:08.932Z,5.38
2023-03-06T03:36:39.331Z,5.37
2023-03-06T03:39:08.450Z,5.37
2023-03-06T03:41:36.331Z,5.37
2023-03-06T03:44:06.832Z,5.37
2023-03-06T03:46:36.894Z,5.37
2023-03-06T03:49:07.966Z,5.39
2023-03-06T03:51:36.373Z,5.38
2023-03-06T03:54:05.775Z,5.40
2023-03-06T03:56:41.026Z,5.37
2023-03-06T03:59:17.485Z,5.38
2023-03-06T04:02:05.854Z,5.39
2023-03-06T04:04:38.550Z,5.37
2023-03-06T04:07:06.342Z,5.36
2023-03-06T04:09:33.339Z,5.36
2023-03-06T04:12:00.682Z,5.37
2023-03-06T04:14:27.814Z,5.38
2023-03-06T04:16:57.467Z,5.36
2023-03-06T04:19:29.705Z,5.37
2023-03-06T04:21:56.948Z,5.36
2023-03-06T04:24:24.414Z,5.34
2023-03-06T04:26:54.419Z,5.34
2023-03-06T04:29:24.461Z,5.35
2023-03-06T04:31:51.795Z,5.35
2023-03-06T04:34:19.263Z,5.34
2023-03-06T04:36:46.878Z,5.34
2023-03-06T04:39:16.331Z,5.34
2023-03-06T04:41:43.886Z,5.32
2023-03-06T04:44:11.088Z,5.28
2023-03-06T04:46:38.239Z,5.28
2023-03-06T04:49:05.432Z,5.27
2023-03-06T04:51:32.694Z,5.31
2023-03-06T04:53:59.790Z,5.27
2023-03-06T04:56:27.212Z,5.26
2023-03-06T04:58:54.384Z,5.26
2023-03-06T05:01:21.655Z,5.26
2023-03-06T05:03:51.808Z,5.25
2023-03-06T05:06:19.671Z,5.25
2023-03-06T05:08:50.308Z,5.24
2023-03-06T05:11:18.255Z,5.21
2023-03-06T05:13:45.725Z,5.21
2023-03-06T05:16:12.898Z,5.23
2023-03-06T05:18:39.988Z,5.22
2023-03-06T05:21:07.555Z,5.20
2023-03-06T05:23:38.786Z,5.21
2023-03-06T05:26:11.681Z,5.18
2023-03-06T05:28:39.645Z,5.21
2023-03-06T05:31:09.675Z,5.17
2023-03-06T05:33:37.594Z,5.18
2023-03-06T05:36:05.061Z,5.16
2023-03-06T05:38:34.960Z,5.15
2023-03-06T05:41:05.024Z,5.17
2023-03-06T05:43:32.211Z,5.16
2023-03-06T05:46:06.479Z,5.13
2023-03-06T05:48:34.598Z,5.13
2023-03-06T05:51:03.812Z,5.13
2023-03-06T05:53:33.928Z,5.13
2023-03-06T05:56:11.519Z,5.12
2023-03-06T05:58:42.167Z,5.09
2023-03-06T06:01:11.560Z,5.09
2023-03-06T06:03:39.353Z,5.10
2023-03-06T06:06:12.463Z,5.09
2023-03-06T06:08:40.203Z,5.10
2023-03-06T06:11:09.983Z,5.13
2023-03-06T06:13:39.350Z,5.12
2023-03-06T06:16:16.112Z,5.11
2023-03-06T06:18:46.324Z,5.11
2023-03-06T06:21:17.533Z,5.09
2023-03-06T06:23:45.809Z,5.09
2023-03-06T06:26:13.292Z,5.04
2023-03-06T06:28:40.368Z,5.05
2023-03-06T06:31:12.602Z,5.03
2023-03-06T06:33:42.586Z,4.97
2023-03-06T06:36:18.198Z,4.96
2023-03-06T06:38:47.918Z,5.00
2023-03-06T06:44:08.485Z,4.94
2023-03-06T06:49:23.587Z,4.93
2023-03-06T06:51:50.635Z,4.93
2023-03-06T06:54:18.942Z,4.93
2023-03-06T06:56:46.158Z,4.89
2023-03-06T06:59:17.596Z,4.92
2023-03-06T07:01:45.496Z,4.89
2023-03-06T07:04:16.408Z,4.88
2023-03-06T07:06:43.675Z,4.88
2023-03-06T07:09:10.764Z,4.83
2023-03-06T07:11:39.664Z,4.86
2023-03-06T07:14:06.716Z,4.82
2023-03-06T07:16:34.013Z,4.80
2023-03-06T07:19:01.197Z,4.79
2023-03-06T07:21:28.356Z,4.77
2023-03-06T07:23:57.626Z,4.67
2023-03-06T07:26:26.349Z,4.64
2023-03-06T07:28:54.077Z,4.67
2023-03-06T07:31:27.708Z,4.73
2023-03-06T07:33:57.729Z,4.76
2023-03-06T07:36:24.986Z,4.77
2023-03-06T07:38:53.606Z,4.80
2023-03-06T07:41:22.513Z,4.78
2023-03-06T07:43:50.536Z,4.82
2023-03-06T07:46:17.778Z,4.76
2023-03-06T07:48:45.027Z,4.76
2023-03-06T07:51:21.290Z,4.75
2023-03-06T07:53:49.501Z,4.80
2023-03-06T07:56:19.134Z,4.83
2023-03-06T07:58:47.993Z,4.83
2023-03-06T08:01:22.269Z,4.84
2023-03-06T08:03:50.297Z,4.88
2023-03-06T08:06:19.044Z,4.87
2023-03-06T08:08:49.589Z,4.09
2023-03-06T08:11:19.261Z,4.52
2023-03-06T08:13:49.399Z,4.68
2023-03-06T08:16:17.696Z,4.76
2023-03-06T08:18:46.401Z,4.81
2023-03-06T08:21:17.156Z,4.81
2023-03-06T08:23:44.974Z,4.80
2023-03-06T08:26:26.331Z,4.80
2023-03-06T08:28:55.639Z,4.80
2023-03-06T08:31:35.418Z,4.82
2023-03-06T08:34:05.781Z,4.83
2023-03-06T08:36:33.801Z,4.79
2023-03-06T08:39:01.458Z,4.79
2023-03-06T08:41:28.713Z,4.79
2023-03-06T08:43:55.810Z,4.79
2023-03-06T08:46:26.067Z,4.77
2023-03-06T08:48:53.208Z,4.78
2023-03-06T08:51:22.469Z,4.78
2023-03-06T08:53:50.785Z,4.75
2023-03-06T08:56:21.937Z,4.76
2023-03-06T08:58:50.191Z,4.76
2023-03-06T09:01:23.168Z,4.69
2023-03-06T09:03:51.159Z,4.65
2023-03-06T09:06:18.262Z,4.69
2023-03-06T09:08:45.654Z,4.74
2023-03-06T09:11:14.957Z,4.76
2023-03-06T09:13:43.533Z,4.67
2023-03-06T09:16:13.939Z,4.64
2023-03-06T09:18:41.586Z,4.60
2023-03-06T09:21:10.225Z,4.60
2023-03-06T09:23:40.690Z,4.62
2023-03-06T09:26:08.737Z,4.65
2023-03-06T09:28:37.047Z,4.66
2023-03-06T09:31:18.399Z,4.64
2023-03-06T09:33:46.339Z,4.65
2023-03-06T09:36:21.478Z,4.60
2023-03-06T09:38:52.338Z,4.68
2023-03-06T09:41:27.818Z,4.62
2023-03-06T09:44:08.937Z,4.63
2023-03-06T09:47:03.375Z,4.62
2023-03-06T09:49:39.699Z,4.63
2023-03-06T09:52:30.599Z,4.59
2023-03-06T09:55:09.950Z,4.64
2023-03-06T09:57:43.432Z,4.62
2023-03-06T10:00:27.016Z,4.60
2023-03-06T10:03:03.892Z,4.51
2023-03-06T10:05:40.717Z,4.52
2023-03-06T10:08:36.966Z,4.52
2023-03-06T10:11:10.177Z,4.42
2023-03-06T10:13:43.060Z,4.36
2023-03-06T10:16:42.783Z,4.26
2023-03-06T10:19:19.004Z,4.33
2023-03-06T10:22:18.185Z,4.29
2023-03-06T10:25:23.802Z,4.32
2023-03-06T10:28:15.244Z,4.32
2023-03-06T10:30:52.886Z,4.32
2023-03-06T10:33:32.110Z,4.32
2023-03-06T10:35:59.609Z,4.34
2023-03-06T10:38:32.888Z,4.41
2023-03-06T10:41:12.079Z,4.43
2023-03-06T10:43:45.040Z,4.44
2023-03-06T10:46:26.137Z,4.45
2023-03-06T10:49:01.988Z,4.45
2023-03-06T10:51:30.918Z,4.46
2023-03-06T10:54:04.590Z,4.46
2023-03-06T10:56:43.088Z,4.42
2023-03-06T10:59:14.366Z,4.46
2023-03-06T11:01:46.405Z,4.53
2023-03-06T11:04:29.905Z,4.47
2023-03-06T11:07:20.960Z,4.45
2023-03-06T11:09:58.760Z,4.53
2023-03-06T11:12:37.797Z,4.54
2023-03-06T11:15:25.469Z,4.58
2023-03-06T11:17:54.554Z,4.60
2023-03-06T11:20:52.998Z,4.64
2023-03-06T11:23:35.498Z,4.66
2023-03-06T11:26:08.492Z,4.67
2023-03-06T11:29:03.014Z,4.61
2023-03-06T11:32:03.372Z,4.54
2023-03-06T11:34:36.913Z,4.39
2023-03-06T11:37:18.172Z,4.32
2023-03-06T11:39:54.855Z,4.28
2023-03-06T11:42:59.064Z,4.35
2023-03-06T11:45:37.503Z,4.38
2023-03-06T11:48:14.079Z,4.44
2023-03-06T11:50:53.277Z,4.50
2023-03-06T11:53:23.481Z,4.54
2023-03-06T11:56:03.744Z,4.54
2023-03-06T11:58:49.730Z,4.53
2023-03-06T12:01:27.157Z,4.53
2023-03-06T12:04:03.844Z,4.52
2023-03-06T12:06:49.819Z,4.51
2023-03-06T12:09:30.972Z,4.59
2023-03-06T12:12:19.728Z,4.51
2023-03-06T12:15:04.181Z,4.56
2023-03-06T12:18:08.553Z,4.53
2023-03-06T12:20:50.431Z,4.57
2023-03-06T12:23:36.577Z,4.61
2023-03-06T12:26:49.176Z,4.61
2023-03-06T12:29:57.451Z,4.64
2023-03-06T12:32:36.835Z,4.54
2023-03-06T12:35:31.609Z,4.44
2023-03-06T12:38:16.860Z,4.33
2023-03-06T12:41:08.665Z,4.30
2023-03-06T12:43:55.390Z,4.28
2023-03-06T12:46:28.447Z,4.31
2023-03-06T12:49:26.297Z,4.33
2023-03-06T12:52:00.125Z,4.41
2023-03-06T12:54:32.311Z,4.42
2023-03-06T12:57:01.152Z,4.43
2023-03-06T12:59:47.344Z,4.37
2023-03-06T13:02:38.813Z,4.30
2023-03-06T13:05:30.368Z,4.28
2023-03-06T13:08:02.578Z,4.28
2023-03-06T13:10:36.046Z,4.21
2023-03-06T13:13:24.860Z,4.20
2023-03-06T13:16:13.723Z,4.20
2023-03-06T13:18:44.383Z,4.20
2023-03-06T13:21:42.490Z,4.19
2023-03-06T13:24:19.629Z,4.22
2023-03-06T13:26:46.759Z,4.32
2023-03-06T13:29:40.070Z,4.31
2023-03-06T13:32:18.153Z,4.19
2023-03-06T13:34:50.229Z,4.19
2023-03-06T13:37:17.437Z,4.26
2023-03-06T13:39:59.599Z,4.31
2023-03-06T13:42:38.176Z,4.28
2023-03-06T13:45:23.243Z,4.31
2023-03-06T13:48:15.865Z,4.36
2023-03-06T13:50:46.722Z,4.34
2023-03-06T13:53:31.883Z,4.28
2023-03-06T13:56:17.032Z,4.26
2023-03-06T13:58:47.370Z,4.18
2023-03-06T14:01:28.249Z,4.07
2023-03-06T14:04:27.565Z,4.04
2023-03-06T14:07:12.353Z,3.93
2023-03-06T14:09:45.742Z,3.99
2023-03-06T14:12:27.597Z,4.00
2023-03-06T14:14:57.942Z,3.92
2023-03-06T14:17:34.100Z,4.00
2023-03-06T14:20:13.012Z,4.10
2023-03-06T14:22:40.211Z,4.13
2023-03-06T14:25:18.156Z,4.16
2023-03-06T14:27:56.314Z,4.18
2023-03-06T14:30:26.948Z,4.17
2023-03-06T14:32:55.433Z,4.16
2023-03-06T14:35:31.146Z,4.07
2023-03-06T14:38:05.337Z,4.06
2023-03-06T14:40:36.997Z,3.88
2023-03-06T14:43:31.961Z,3.90
2023-03-06T14:46:06.318Z,3.83
2023-03-06T14:48:43.199Z,3.77
2023-03-06T14:51:23.267Z,3.85
2023-03-06T14:53:52.751Z,3.85
2023-03-06T14:56:25.751Z,3.92
2023-03-06T14:58:57.709Z,3.98
2023-03-06T15:01:30.575Z,3.95
2023-03-06T15:04:01.614Z,3.99
2023-03-06T15:06:43.413Z,3.98
2023-03-06T15:09:31.484Z,3.87
2023-03-06T15:12:03.745Z,3.99
2023-03-06T15:14:42.029Z,4.00
2023-03-06T15:17:18.064Z,4.00
2023-03-06T15:19:48.629Z,4.01
2023-03-06T15:22:34.489Z,4.07
2023-03-06T15:25:16.699Z,4.18
2023-03-06T15:28:23.122Z,4.24
2023-03-06T15:31:09.089Z,4.29
2023-03-06T15:33:37.390Z,4.21
2023-03-06T15:36:06.672Z,4.21
2023-03-06T15:38:40.890Z,4.13
2023-03-06T15:41:37.172Z,4.15
2023-03-06T15:44:14.704Z,4.06
2023-03-06T15:46:42.328Z,4.00
2023-03-06T15:49:20.461Z,4.00
2023-03-06T15:51:47.648Z,4.03
2023-03-06T15:54:14.671Z,4.07
2023-03-06T15:56:44.739Z,4.05
2023-03-06T15:59:21.790Z,4.05
2023-03-06T16:01:50.002Z,4.04
2023-03-06T16:04:18.131Z,4.02
2023-03-06T16:06:46.124Z,3.97
2023-03-06T16:09:15.499Z,4.03
2023-03-06T16:11:45.900Z,4.05
2023-03-06T16:14:20.182Z,4.04
2023-03-06T16:16:48.700Z,4.09
2023-03-06T16:19:25.985Z,4.09
2023-03-06T16:21:53.953Z,4.09
2023-03-06T16:24:21.034Z,4.08
2023-03-06T16:26:51.146Z,4.06
2023-03-06T16:29:28.503Z,4.03
2023-03-06T16:31:57.200Z,4.03
2023-03-06T16:34:24.442Z,4.04
2023-03-06T16:36:51.883Z,4.04
2023-03-06T16:39:21.954Z,4.04
2023-03-06T16:41:50.650Z,4.02
2023-03-06T16:44:17.934Z,3.99
2023-03-06T16:46:47.329Z,3.98
2023-03-06T16:49:25.484Z,3.99
2023-03-06T16:51:53.964Z,3.99
2023-03-06T16:54:22.005Z,3.97
2023-03-06T16:56:49.080Z,3.94
2023-03-06T16:59:16.173Z,3.99
2023-03-06T17:01:46.148Z,4.00
2023-03-06T17:04:13.397Z,3.92
2023-03-06T17:06:42.051Z,3.94
2023-03-06T17:09:11.149Z,3.91
2023-03-06T17:11:43.526Z,3.91
2023-03-06T17:14:11.871Z,3.95
2023-03-06T17:16:40.569Z,3.98
2023-03-06T17:19:08.092Z,3.94
2023-03-06T17:21:35.767Z,3.90
2023-03-06T17:24:04.020Z,3.75
2023-03-06T17:26:31.444Z,3.79
2023-03-06T17:28:58.643Z,3.79
2023-03-06T17:31:27.722Z,3.77
2023-03-06T17:33:59.265Z,3.75
2023-03-06T17:36:30.695Z,3.74
2023-03-06T17:39:00.214Z,3.74
2023-03-06T17:41:27.713Z,3.73
2023-03-06T17:43:59.017Z,3.72
2023-03-06T17:46:26.518Z,3.75
2023-03-06T17:48:53.672Z,3.74
2023-03-06T17:51:20.905Z,3.77
2023-03-06T17:53:47.953Z,2.81
2023-03-06T17:56:15.665Z,3.11
2023-03-06T17:58:42.607Z,3.44
2023-03-06T18:01:17.897Z,3.58
2023-03-06T18:03:47.496Z,3.57
2023-03-06T18:06:15.183Z,3.57
2023-03-06T18:08:42.376Z,3.61
2023-03-06T18:11:10.288Z,3.62
2023-03-06T18:13:40.249Z,3.56
2023-03-06T18:16:08.592Z,3.57
2023-03-06T18:18:35.935Z,3.58
2023-03-06T18:21:08.459Z,3.56
2023-03-06T18:23:38.315Z,3.63
2023-03-06T18:26:09.478Z,3.60
2023-03-06T18:28:37.059Z,3.60
2023-03-06T18:31:08.660Z,3.61
2023-03-06T18:33:36.275Z,3.55
2023-03-06T18:36:05.002Z,3.57
2023-03-06T18:38:32.282Z,3.58
2023-03-06T18:40:59.348Z,3.59
2023-03-06T18:43:28.936Z,3.63
2023-03-06T18:45:56.616Z,3.61
2023-03-06T18:48:25.101Z,3.61
2023-03-06T18:50:52.127Z,3.64
2023-03-06T18:53:20.159Z,3.62
2023-03-06T18:55:51.853Z,3.61
2023-03-06T18:58:19.480Z,3.17
2023-03-06T19:00:46.563Z,3.42
2023-03-06T19:03:14.674Z,3.49
2023-03-06T19:05:43.495Z,3.52
2023-03-06T19:08:10.584Z,3.55
2023-03-06T19:10:39.744Z,3.57
2023-03-06T19:13:08.087Z,3.60
2023-03-06T19:15:43.987Z,3.58
2023-03-06T19:18:16.723Z,3.57
2023-03-06T19:20:45.288Z,3.59
2023-03-06T19:23:12.283Z,3.59
2023-03-06T19:25:39.474Z,3.60
2023-03-06T19:28:06.489Z,3.60
2023-03-06T19:30:34.273Z,3.61
2023-03-06T19:33:02.109Z,3.61
2023-03-06T19:35:29.567Z,3.63
2023-03-06T19:37:56.693Z,3.50
2023-03-06T19:40:23.995Z,3.52
2023-03-06T19:42:50.949Z,3.56
2023-03-06T19:45:18.363Z,3.48
2023-03-06T19:47:45.388Z,3.49
2023-03-06T19:50:12.689Z,3.43
2023-03-06T19:52:39.776Z,3.38
2023-03-06T19:55:08.638Z,3.25
2023-03-06T19:57:36.443Z,3.28
2023-03-06T20:00:04.797Z,3.35
2023-03-06T20:02:39.983Z,3.28
2023-03-06T20:05:09.360Z,3.24
2023-03-06T20:07:36.334Z,3.24
2023-03-06T20:10:04.494Z,3.13
2023-03-06T20:12:33.444Z,3.12
2023-03-06T20:15:01.254Z,3.19
2023-03-06T20:17:28.457Z,3.21
2023-03-06T20:19:56.322Z,3.30
2023-03-06T20:22:23.392Z,3.25
2023-03-06T20:24:50.718Z,3.25
2023-03-06T20:27:17.708Z,3.29
2023-03-06T20:29:45.885Z,3.31
2023-03-06T20:32:13.793Z,3.32
2023-03-06T20:34:41.235Z,3.34
2023-03-06T20:37:09.313Z,3.35
2023-03-06T20:39:37.762Z,3.45
2023-03-06T20:42:05.560Z,3.60
2023-03-06T20:44:32.844Z,3.70
2023-03-06T20:46:59.924Z,3.73
2023-03-06T20:49:28.646Z,3.74
2023-03-06T20:51:56.837Z,3.80
2023-03-06T20:54:24.010Z,3.87
2023-03-06T20:56:50.947Z,3.79
2023-03-06T20:59:18.240Z,3.70
2023-03-06T21:01:47.025Z,3.62
2023-03-06T21:04:15.258Z,3.60
2023-03-06T21:06:46.784Z,3.58
2023-03-06T21:09:17.201Z,3.55
2023-03-06T21:11:44.989Z,3.52
2023-03-06T21:14:14.716Z,3.49
2023-03-06T21:16:46.760Z,3.45
2023-03-06T21:19:14.411Z,3.43
2023-03-06T21:21:41.446Z,3.46
2023-03-06T21:24:08.734Z,3.42
2023-03-06T21:26:43.057Z,3.39
2023-03-06T21:29:10.322Z,3.41
2023-03-06T21:31:37.494Z,3.36
2023-03-06T21:34:05.468Z,3.39
2023-03-06T21:36:35.219Z,3.34
2023-03-06T21:39:04.019Z,3.33
2023-03-06T21:41:32.449Z,3.34
2023-03-06T21:44:02.392Z,3.35
2023-03-06T21:46:33.327Z,3.33
2023-03-06T21:49:02.146Z,3.32
2023-03-06T21:51:29.217Z,3.29
2023-03-06T21:53:56.444Z,3.32
2023-03-06T21:56:25.631Z,3.29
2023-03-06T21:58:54.861Z,3.30
2023-03-06T22:01:25.682Z,3.30
2023-03-06T22:03:55.333Z,3.28
2023-03-06T22:06:25.710Z,3.23
2023-03-06T22:08:55.296Z,3.23
2023-03-06T22:11:31.652Z,3.27
2023-03-06T22:13:59.133Z,3.24
2023-03-06T22:16:26.590Z,3.27
2023-03-06T22:18:55.275Z,3.18
2023-03-06T22:21:23.024Z,3.14
2023-03-06T22:23:57.577Z,3.16
2023-03-06T22:26:33.004Z,3.14
2023-03-06T22:29:00.244Z,3.19
2023-03-06T22:31:30.415Z,3.19
2023-03-06T22:34:02.188Z,3.09
2023-03-06T22:36:30.879Z,3.02
2023-03-06T22:39:00.268Z,3.05
2023-03-06T22:41:29.132Z,3.10
2023-03-06T22:44:00.107Z,3.09
2023-03-06T22:46:27.744Z,3.08
2023-03-06T22:48:59.992Z,3.05
2023-03-06T22:51:28.950Z,3.00
2023-03-06T22:53:56.111Z,3.04
2023-03-06T22:56:23.875Z,3.02
2023-03-06T22:58:51.239Z,3.02
2023-03-06T23:01:23.521Z,2.97
2023-03-06T23:03:52.684Z,2.90
2023-03-06T23:06:21.929Z,2.93
2023-03-06T23:08:59.169Z,2.95
2023-03-06T23:11:28.112Z,2.94
2023-03-06T23:14:14.693Z,2.97
2023-03-06T23:17:03.148Z,2.97
2023-03-06T23:19:51.433Z,3.01
2023-03-06T23:22:37.068Z,3.03
2023-03-06T23:25:23.163Z,3.05
2023-03-06T23:27:53.593Z,3.02
2023-03-06T23:30:20.865Z,3.04
2023-03-06T23:32:47.921Z,3.04
2023-03-06T23:35:15.308Z,3.00
2023-03-06T23:37:42.486Z,3.00
2023-03-06T23:40:12.911Z,3.02
2023-03-06T23:42:40.521Z,3.01
2023-03-06T23:45:08.288Z,3.02
2023-03-06T23:47:37.435Z,3.00
2023-03-06T23:50:04.658Z,2.93
2023-03-06T23:52:33.066Z,2.94
2023-03-06T23:55:00.421Z,2.87
2023-03-06T23:57:30.859Z,2.79
2023-03-06T23:59:58.672Z,2.86
